createdAt,value
2023-04-12T00:00:13.495Z,100.00
2023-04-12T00:02:42.516Z,100.00
2023-04-12T00:05:11.819Z,100.00
2023-04-12T00:07:40.208Z,100.00
2023-04-12T00:10:09.499Z,100.00
2023-04-12T00:12:40.499Z,100.00
2023-04-12T00:15:09.842Z,100.00
2023-04-12T00:17:37.853Z,100.00
2023-04-12T00:20:07.560Z,100.00
2023-04-12T00:22:37.058Z,100.00
2023-04-12T00:25:06.923Z,100.00
2023-04-12T00:27:34.988Z,100.00
2023-04-12T00:30:04.788Z,100.00
2023-04-12T00:32:32.757Z,100.00
2023-04-12T00:35:00.835Z,100.00
2023-04-12T00:37:28.869Z,100.00
2023-04-12T00:39:56.832Z,100.00
2023-04-12T00:42:24.805Z,100.00
2023-04-12T00:44:52.726Z,100.00
2023-04-12T00:47:22.246Z,100.00
2023-04-12T00:49:50.258Z,100.00
2023-04-12T00:52:18.563Z,100.00
2023-04-12T00:54:47.030Z,100.00
2023-04-12T00:57:15.132Z,100.00
2023-04-12T00:59:43.082Z,100.00
2023-04-12T01:02:11.259Z,100.00
2023-04-12T01:04:43.700Z,100.00
2023-04-12T01:07:20.618Z,100.00
2023-04-12T01:10:00.517Z,100.00
2023-04-12T01:12:42.263Z,100.00
2023-04-12T01:15:13.750Z,100.00
2023-04-12T01:17:48.830Z,100.00
2023-04-12T01:20:21.756Z,100.00
2023-04-12T01:23:21.303Z,100.00
2023-04-12T01:26:08.314Z,100.00
2023-04-12T01:28:42.474Z,100.00
2023-04-12T01:31:13.315Z,100.00
2023-04-12T01:33:44.529Z,100.00
2023-04-12T01:36:15.177Z,100.00
2023-04-12T01:38:43.841Z,100.00
2023-04-12T01:41:11.965Z,100.00
2023-04-12T01:43:44.807Z,100.00
2023-04-12T01:46:17.013Z,100.00
2023-04-12T01:48:50.452Z,100.00
2023-04-12T01:51:32.481Z,100.00
2023-04-12T01:54:04.331Z,100.00
2023-04-12T01:56:39.496Z,100.00
2023-04-12T01:59:12.129Z,100.00
2023-04-12T02:01:48.489Z,100.00
2023-04-12T02:04:33.784Z,100.00
2023-04-12T02:07:02.015Z,100.00
2023-04-12T02:09:30.015Z,100.00
2023-04-12T02:11:57.972Z,100.00
2023-04-12T02:14:27.925Z,100.00
2023-04-12T02:16:56.347Z,100.00
2023-04-12T02:19:24.742Z,100.00
2023-04-12T02:21:52.930Z,100.00
2023-04-12T02:24:20.895Z,100.00
2023-04-12T02:26:50.094Z,100.00
2023-04-12T02:29:18.520Z,100.00
2023-04-12T02:31:48.425Z,100.00
2023-04-12T02:34:18.200Z,100.00
2023-04-12T02:36:48.469Z,100.00
2023-04-12T02:39:18.979Z,100.00
2023-04-12T02:41:47.179Z,100.00
2023-04-12T02:44:15.130Z,100.00
2023-04-12T02:46:43.117Z,100.00
2023-04-12T02:49:12.562Z,100.00
2023-04-12T02:51:40.861Z,100.00
2023-04-12T02:54:08.761Z,100.00
2023-04-12T02:56:37.074Z,100.00
2023-04-12T02:59:05.017Z,100.00
2023-04-12T03:01:33.796Z,100.00
2023-04-12T03:04:02.243Z,100.00
2023-04-12T03:06:32.159Z,100.00
2023-04-12T03:09:00.508Z,100.00
2023-04-12T03:11:28.488Z,100.00
2023-04-12T03:13:56.629Z,100.00
2023-04-12T03:16:30.143Z,100.00
2023-04-12T03:18:58.762Z,100.00
2023-04-12T03:21:28.384Z,100.00
2023-04-12T03:23:58.080Z,100.00
2023-04-12T03:26:26.677Z,100.00
2023-04-12T03:29:00.751Z,100.00
2023-04-12T03:31:29.235Z,100.00
2023-04-12T03:33:57.580Z,100.00
2023-04-12T03:36:27.163Z,100.00
2023-04-12T03:38:55.578Z,100.00
2023-04-12T03:41:24.987Z,100.00
2023-04-12T03:43:52.936Z,100.00
2023-04-12T03:46:21.370Z,100.00
2023-04-12T03:48:50.870Z,100.00
2023-04-12T03:51:22.296Z,100.00
2023-04-12T03:53:50.302Z,100.00
2023-04-12T03:56:20.143Z,100.00
2023-04-12T03:58:49.608Z,100.00
2023-04-12T04:01:18.015Z,100.00
2023-04-12T04:03:46.672Z,100.00
2023-04-12T04:06:15.153Z,100.00
2023-04-12T04:08:44.721Z,100.00
2023-04-12T04:11:14.253Z,100.00
2023-04-12T04:13:42.425Z,100.00
2023-04-12T04:16:12.057Z,100.00
2023-04-12T04:18:40.198Z,100.00
2023-04-12T04:21:08.992Z,100.00
2023-04-12T04:23:39.177Z,100.00
2023-04-12T04:26:10.576Z,100.00
2023-04-12T04:28:39.563Z,100.00
2023-04-12T04:31:10.701Z,100.00
2023-04-12T04:33:41.834Z,100.00
2023-04-12T04:36:13.436Z,100.00
2023-04-12T04:38:42.127Z,100.00
2023-04-12T04:41:10.534Z,100.00
2023-04-12T04:43:40.234Z,100.00
2023-04-12T04:46:08.533Z,100.00
2023-04-12T04:48:36.665Z,100.00
2023-04-12T04:51:06.282Z,100.00
2023-04-12T04:53:34.730Z,100.00
2023-04-12T04:56:02.757Z,100.00
2023-04-12T04:58:30.766Z,100.00
2023-04-12T05:00:59.883Z,100.00
2023-04-12T05:03:30.836Z,100.00
2023-04-12T05:05:59.108Z,100.00
2023-04-12T05:08:29.773Z,100.00
2023-04-12T05:10:58.248Z,100.00
2023-04-12T05:13:26.276Z,100.00
2023-04-12T05:15:54.306Z,100.00
2023-04-12T05:18:22.237Z,100.00
2023-04-12T05:20:50.584Z,100.00
2023-04-12T05:23:20.840Z,100.00
2023-04-12T05:25:50.432Z,100.00
2023-04-12T05:28:18.581Z,100.00
2023-04-12T05:30:47.921Z,100.00
2023-04-12T05:33:16.160Z,100.00
2023-04-12T05:35:44.237Z,100.00
2023-04-12T05:38:12.214Z,100.00
2023-04-12T05:40:40.108Z,100.00
2023-04-12T05:43:12.575Z,100.00
2023-04-12T05:45:41.937Z,100.00
2023-04-12T05:48:10.180Z,100.00
2023-04-12T05:50:38.338Z,100.00
2023-04-12T05:53:06.382Z,100.00
2023-04-12T05:55:35.940Z,100.00
2023-04-12T05:58:05.554Z,99.85
2023-04-12T06:00:35.023Z,98.91
2023-04-12T06:03:03.963Z,96.26
2023-04-12T06:05:32.934Z,96.59
2023-04-12T06:08:02.288Z,95.02
2023-04-12T06:10:32.422Z,94.64
2023-04-12T06:13:00.347Z,94.19
2023-04-12T06:15:29.027Z,94.17
2023-04-12T06:17:58.624Z,94.21
2023-04-12T06:20:26.656Z,94.31
2023-04-12T06:22:54.693Z,94.44
2023-04-12T06:25:24.117Z,93.74
2023-04-12T06:27:52.072Z,94.86
2023-04-12T06:30:20.744Z,95.56
2023-04-12T06:32:48.822Z,97.41
2023-04-12T06:35:20.301Z,100.00
2023-04-12T06:37:48.422Z,100.00
2023-04-12T06:40:16.592Z,99.84
2023-04-12T06:42:44.591Z,100.00
2023-04-12T06:45:12.776Z,100.00
2023-04-12T06:47:40.783Z,98.56
2023-04-12T06:50:09.934Z,98.45
2023-04-12T06:52:39.265Z,95.11
2023-04-12T06:55:08.416Z,93.46
2023-04-12T06:57:36.436Z,92.26
2023-04-12T07:00:05.076Z,91.14
2023-04-12T07:02:33.533Z,90.00
2023-04-12T07:05:01.661Z,89.33
2023-04-12T07:07:29.623Z,85.39
2023-04-12T07:10:00.418Z,78.28
2023-04-12T07:12:28.434Z,75.45
2023-04-12T07:14:56.407Z,72.10
2023-04-12T07:17:27.239Z,70.16
2023-04-12T07:19:55.242Z,67.03
2023-04-12T07:22:23.442Z,66.90
2023-04-12T07:24:51.919Z,65.27
2023-04-12T07:27:21.286Z,64.27
2023-04-12T07:29:49.245Z,65.26
2023-04-12T07:32:17.191Z,67.12
2023-04-12T07:34:45.065Z,68.17
2023-04-12T07:37:13.172Z,69.77
2023-04-12T07:39:44.052Z,69.94
2023-04-12T07:42:12.088Z,70.34
2023-04-12T07:44:41.536Z,71.55
2023-04-12T07:47:09.608Z,71.16
2023-04-12T07:49:37.506Z,70.04
2023-04-12T07:52:05.908Z,64.79
2023-04-12T07:54:33.890Z,63.63
2023-04-12T07:57:03.718Z,62.08
2023-04-12T07:59:32.316Z,61.61
2023-04-12T08:02:02.108Z,59.82
2023-04-12T08:04:30.341Z,60.26
2023-04-12T08:06:58.332Z,62.03
2023-04-12T08:09:26.453Z,62.55
2023-04-12T08:11:54.425Z,62.51
2023-04-12T08:14:22.594Z,63.71
2023-04-12T08:16:50.609Z,63.42
2023-04-12T08:19:21.471Z,63.61
2023-04-12T08:21:49.397Z,63.82
2023-04-12T08:24:17.388Z,61.14
2023-04-12T08:26:45.882Z,55.82
2023-04-12T08:29:14.010Z,55.12
2023-04-12T08:31:42.162Z,52.91
2023-04-12T08:34:10.234Z,51.50
2023-04-12T08:36:41.088Z,51.43
2023-04-12T08:39:09.574Z,49.72
2023-04-12T08:41:39.945Z,48.98
2023-04-12T08:44:08.312Z,51.67
2023-04-12T08:46:37.750Z,53.34
2023-04-12T08:49:05.905Z,51.88
2023-04-12T08:51:36.336Z,50.91
2023-04-12T08:54:06.371Z,49.23
2023-04-12T08:56:34.606Z,47.09
2023-04-12T08:59:03.645Z,45.52
2023-04-12T09:01:31.615Z,44.81
2023-04-12T09:04:00.044Z,46.08
2023-04-12T09:06:28.338Z,45.23
2023-04-12T09:08:58.099Z,44.13
2023-04-12T09:11:28.912Z,44.30
2023-04-12T09:13:58.630Z,44.67
2023-04-12T09:16:37.518Z,43.00
2023-04-12T09:19:05.725Z,43.07
2023-04-12T09:21:34.904Z,42.64
2023-04-12T09:24:11.757Z,42.29
2023-04-12T09:26:43.002Z,41.17
2023-04-12T09:29:25.183Z,40.91
2023-04-12T09:31:58.046Z,42.41
2023-04-12T09:34:27.767Z,40.00
2023-04-12T09:36:56.135Z,40.00
2023-04-12T09:39:33.106Z,40.58
2023-04-12T09:42:25.034Z,40.33
2023-04-12T09:44:59.026Z,39.28
2023-04-12T09:47:39.399Z,39.19
2023-04-12T09:50:09.990Z,38.91
2023-04-12T09:52:39.501Z,37.47
2023-04-12T09:55:11.219Z,37.84
2023-04-12T09:57:43.205Z,40.06
2023-04-12T10:00:17.698Z,41.24
2023-04-12T10:02:47.844Z,41.83
2023-04-12T10:05:19.001Z,40.46
2023-04-12T10:07:48.115Z,38.70
2023-04-12T10:10:18.155Z,37.91
2023-04-12T10:12:49.478Z,37.35
2023-04-12T10:15:18.745Z,35.68
2023-04-12T10:17:48.324Z,34.72
2023-04-12T10:20:18.230Z,35.35
2023-04-12T10:22:48.913Z,35.65
2023-04-12T10:25:19.382Z,36.61
2023-04-12T10:27:49.883Z,36.11
2023-04-12T10:30:25.068Z,35.47
2023-04-12T10:33:14.809Z,34.30
2023-04-12T10:35:54.421Z,32.52
2023-04-12T10:38:25.046Z,32.34
2023-04-12T10:41:17.290Z,32.86
2023-04-12T10:43:48.285Z,32.18
2023-04-12T10:46:53.137Z,31.55
2023-04-12T10:49:21.510Z,32.06
2023-04-12T10:52:16.065Z,31.53
2023-04-12T10:54:44.318Z,31.93
2023-04-12T10:57:48.135Z,30.76
2023-04-12T11:00:18.386Z,30.48
2023-04-12T11:03:07.629Z,30.96
2023-04-12T11:05:57.680Z,30.45
2023-04-12T11:08:26.367Z,30.02
2023-04-12T11:11:00.273Z,30.49
2023-04-12T11:13:29.233Z,29.99
2023-04-12T11:16:02.556Z,29.62
2023-04-12T11:18:30.654Z,30.31
2023-04-12T11:20:59.606Z,30.22
2023-04-12T11:23:28.221Z,29.49
2023-04-12T11:26:14.951Z,30.20
2023-04-12T11:28:43.149Z,30.27
2023-04-12T11:31:12.615Z,30.45
2023-04-12T11:33:41.800Z,29.74
2023-04-12T11:36:13.240Z,29.58
2023-04-12T11:38:42.072Z,30.76
2023-04-12T11:41:11.635Z,30.95
2023-04-12T11:43:40.280Z,29.78
2023-04-12T11:46:08.906Z,30.66
2023-04-12T11:48:39.695Z,30.31
2023-04-12T11:51:20.836Z,29.65
2023-04-12T11:53:53.942Z,29.56
2023-04-12T11:56:22.271Z,29.44
2023-04-12T11:58:50.460Z,29.73
2023-04-12T12:01:20.132Z,31.58
2023-04-12T12:03:50.602Z,30.85
2023-04-12T12:06:20.759Z,30.62
2023-04-12T12:08:51.489Z,30.65
2023-04-12T12:11:21.820Z,31.37
2023-04-12T12:13:50.995Z,31.80
2023-04-12T12:16:19.924Z,31.14
2023-04-12T12:18:52.618Z,31.30
2023-04-12T12:21:22.283Z,30.90
2023-04-12T12:23:51.109Z,30.99
2023-04-12T12:26:24.862Z,31.58
2023-04-12T12:28:55.700Z,31.40
2023-04-12T12:31:26.746Z,32.24
2023-04-12T12:33:58.333Z,32.22
2023-04-12T12:36:33.659Z,31.88
2023-04-12T12:39:07.975Z,31.22
2023-04-12T12:41:36.725Z,31.15
2023-04-12T12:44:04.858Z,31.82
2023-04-12T12:46:50.823Z,31.85
2023-04-12T12:49:22.265Z,31.63
2023-04-12T12:51:52.097Z,31.87
2023-04-12T12:54:36.868Z,32.03
2023-04-12T12:57:08.168Z,32.38
2023-04-12T12:59:36.339Z,32.49
2023-04-12T13:02:05.525Z,32.01
2023-04-12T13:04:35.263Z,32.78
2023-04-12T13:07:03.307Z,32.37
2023-04-12T13:09:32.791Z,32.94
2023-04-12T13:12:02.017Z,33.04
2023-04-12T13:14:30.573Z,33.32
2023-04-12T13:16:58.649Z,33.70
2023-04-12T13:19:26.785Z,33.96
2023-04-12T13:21:57.305Z,34.53
2023-04-12T13:24:25.302Z,34.17
2023-04-12T13:26:53.321Z,34.66
2023-04-12T13:29:21.224Z,35.37
2023-04-12T13:31:49.388Z,35.00
2023-04-12T13:34:17.626Z,35.32
2023-04-12T13:36:46.082Z,34.89
2023-04-12T13:39:15.500Z,35.05
2023-04-12T13:41:43.512Z,34.04
2023-04-12T13:44:11.777Z,34.49
2023-04-12T13:46:39.834Z,35.30
2023-04-12T13:49:07.951Z,35.80
2023-04-12T13:51:36.059Z,36.23
2023-04-12T13:54:04.233Z,36.27
2023-04-12T13:56:33.659Z,35.05
2023-04-12T13:59:02.513Z,35.30
2023-04-12T14:01:30.740Z,35.35
2023-04-12T14:03:58.695Z,35.94
2023-04-12T14:06:27.225Z,35.41
2023-04-12T14:08:55.162Z,34.88
2023-04-12T14:11:24.996Z,35.24
2023-04-12T14:13:54.669Z,35.40
2023-04-12T14:16:22.607Z,34.87
2023-04-12T14:18:50.682Z,35.76
2023-04-12T14:21:18.862Z,35.59
2023-04-12T14:23:47.087Z,35.21
2023-04-12T14:26:20.389Z,34.90
2023-04-12T14:28:50.163Z,35.89
2023-04-12T14:31:22.500Z,35.50
2023-04-12T14:33:50.489Z,35.67
2023-04-12T14:36:21.437Z,35.90
2023-04-12T14:38:49.672Z,35.88
2023-04-12T14:41:19.877Z,35.79
2023-04-12T14:43:47.961Z,36.38
2023-04-12T14:46:19.257Z,36.56
2023-04-12T14:48:47.403Z,36.75
2023-04-12T14:51:15.329Z,37.08
2023-04-12T14:53:43.691Z,36.56
2023-04-12T14:56:20.407Z,36.21
2023-04-12T14:58:50.585Z,36.79
2023-04-12T15:01:20.015Z,36.68
2023-04-12T15:03:48.273Z,36.92
2023-04-12T15:06:16.458Z,37.15
2023-04-12T15:08:44.678Z,37.49
2023-04-12T15:11:13.598Z,36.99
2023-04-12T15:13:44.397Z,38.12
2023-04-12T15:16:14.345Z,37.56
2023-04-12T15:18:43.734Z,38.60
2023-04-12T15:21:12.948Z,38.03
2023-04-12T15:23:42.083Z,37.81
2023-04-12T15:26:10.730Z,37.79
2023-04-12T15:28:39.085Z,37.72
2023-04-12T15:31:08.147Z,37.76
2023-04-12T15:33:37.570Z,38.41
2023-04-12T15:36:07.460Z,37.70
2023-04-12T15:38:41.959Z,38.17
2023-04-12T15:41:10.757Z,37.83
2023-04-12T15:43:38.790Z,37.75
2023-04-12T15:46:07.494Z,37.65
2023-04-12T15:48:39.051Z,38.23
2023-04-12T15:51:08.686Z,37.58
2023-04-12T15:53:37.205Z,37.57
2023-04-12T15:56:05.656Z,38.47
2023-04-12T15:58:33.648Z,38.66
2023-04-12T16:01:01.817Z,39.42
2023-04-12T16:03:30.293Z,39.79
2023-04-12T16:05:58.285Z,39.91
2023-04-12T16:08:28.342Z,39.97
2023-04-12T16:10:56.370Z,40.49
2023-04-12T16:13:24.329Z,39.41
2023-04-12T16:15:52.792Z,39.22
2023-04-12T16:18:20.779Z,39.63
2023-04-12T16:20:53.106Z,39.73
2023-04-12T16:23:21.343Z,40.01
2023-04-12T16:25:53.124Z,40.15
2023-04-12T16:28:22.688Z,40.81
2023-04-12T16:30:50.885Z,41.07
2023-04-12T16:33:19.481Z,40.58
2023-04-12T16:35:47.456Z,41.09
2023-04-12T16:38:17.662Z,41.53
2023-04-12T16:40:45.802Z,41.79
2023-04-12T16:43:15.117Z,42.01
2023-04-12T16:45:45.739Z,41.60
2023-04-12T16:48:15.220Z,42.26
2023-04-12T16:50:45.002Z,41.83
2023-04-12T16:53:13.047Z,41.95
2023-04-12T16:55:43.472Z,42.17
2023-04-12T16:58:14.344Z,42.15
2023-04-12T17:00:44.194Z,42.64
2023-04-12T17:03:13.127Z,42.49
2023-04-12T17:05:41.409Z,43.12
2023-04-12T17:08:09.972Z,43.52
2023-04-12T17:10:38.490Z,43.43
2023-04-12T17:13:06.748Z,44.03
2023-04-12T17:15:34.815Z,44.33
2023-04-12T17:18:05.724Z,44.29
2023-04-12T17:20:34.584Z,44.71
2023-04-12T17:23:03.304Z,44.67
2023-04-12T17:25:32.300Z,44.88
2023-04-12T17:28:01.233Z,45.18
2023-04-12T17:30:29.933Z,45.48
2023-04-12T17:33:01.486Z,45.46
2023-04-12T17:35:31.339Z,45.48
2023-04-12T17:37:59.272Z,45.98
2023-04-12T17:40:27.271Z,45.91
2023-04-12T17:42:55.539Z,46.31
2023-04-12T17:45:24.127Z,46.02
2023-04-12T17:47:52.184Z,46.60
2023-04-12T17:50:20.176Z,46.65
2023-04-12T17:52:50.134Z,46.72
2023-04-12T17:55:23.567Z,46.75
2023-04-12T17:57:51.573Z,47.06
2023-04-12T18:00:20.774Z,47.15
2023-04-12T18:02:50.194Z,47.42
2023-04-12T18:05:20.804Z,47.14
2023-04-12T18:07:50.226Z,47.50
2023-04-12T18:10:21.406Z,47.51
2023-04-12T18:12:50.408Z,47.59
2023-04-12T18:15:19.074Z,47.96
2023-04-12T18:17:47.320Z,48.09
2023-04-12T18:20:16.509Z,48.37
2023-04-12T18:22:45.932Z,48.42
2023-04-12T18:25:16.740Z,48.55
2023-04-12T18:27:47.738Z,48.35
2023-04-12T18:30:17.366Z,48.60
2023-04-12T18:32:45.800Z,48.76
2023-04-12T18:35:13.945Z,48.69
2023-04-12T18:37:42.636Z,48.91
2023-04-12T18:40:11.814Z,48.98
2023-04-12T18:42:41.357Z,49.10
2023-04-12T18:45:10.377Z,49.13
2023-04-12T18:47:39.107Z,48.29
2023-04-12T18:50:08.625Z,49.30
2023-04-12T18:52:37.952Z,49.05
2023-04-12T18:55:07.238Z,49.14
2023-04-12T18:57:35.456Z,49.02
2023-04-12T19:00:10.497Z,49.33
2023-04-12T19:02:38.601Z,49.39
2023-04-12T19:05:06.852Z,49.04
2023-04-12T19:07:34.749Z,49.32
2023-04-12T19:10:02.764Z,49.00
2023-04-12T19:12:30.934Z,49.51
2023-04-12T19:14:58.906Z,49.33
2023-04-12T19:17:29.415Z,49.61
2023-04-12T19:19:58.671Z,48.87
2023-04-12T19:22:28.621Z,49.16
2023-04-12T19:24:56.862Z,49.04
2023-04-12T19:27:25.216Z,49.17
2023-04-12T19:29:53.597Z,49.37
2023-04-12T19:32:22.157Z,49.01
2023-04-12T19:34:51.877Z,49.15
2023-04-12T19:37:19.851Z,49.07
2023-04-12T19:39:48.625Z,49.26
2023-04-12T19:42:17.737Z,49.38
2023-04-12T19:44:46.476Z,49.04
2023-04-12T19:47:15.530Z,49.27
2023-04-12T19:49:43.765Z,49.30
2023-04-12T19:52:15.421Z,49.99
2023-04-12T19:54:43.313Z,50.08
2023-04-12T19:57:11.768Z,50.26
2023-04-12T19:59:39.890Z,50.25
2023-04-12T20:02:08.551Z,50.13
2023-04-12T20:04:38.321Z,49.92
2023-04-12T20:07:06.722Z,50.59
2023-04-12T20:09:36.078Z,50.43
2023-04-12T20:12:04.122Z,50.34
2023-04-12T20:14:35.378Z,50.52
2023-04-12T20:17:06.164Z,50.17
2023-04-12T20:19:34.580Z,50.68
2023-04-12T20:22:03.479Z,50.78
2023-04-12T20:24:34.453Z,50.77
2023-04-12T20:27:03.928Z,50.38
2023-04-12T20:29:33.427Z,50.75
2023-04-12T20:32:02.321Z,51.12
2023-04-12T20:34:30.301Z,51.44
2023-04-12T20:36:59.976Z,51.85
2023-04-12T20:39:29.645Z,51.71
2023-04-12T20:42:01.120Z,51.00
2023-04-12T20:44:30.710Z,51.41
2023-04-12T20:46:59.042Z,51.32
2023-04-12T20:49:27.886Z,51.52
2023-04-12T20:51:57.355Z,51.06
2023-04-12T20:54:25.483Z,51.80
2023-04-12T20:56:54.327Z,51.36
2023-04-12T20:59:23.056Z,51.91
2023-04-12T21:04:41.250Z,51.18
2023-04-12T21:07:09.356Z,51.34
2023-04-12T21:09:37.666Z,51.87
2023-04-12T21:12:07.342Z,52.35
2023-04-12T21:14:35.626Z,52.08
2023-04-12T21:17:07.193Z,52.29
2023-04-12T21:19:39.076Z,51.85
2023-04-12T21:22:08.372Z,52.15
2023-04-12T21:24:38.974Z,51.81
2023-04-12T21:27:08.462Z,52.09
2023-04-12T21:29:41.388Z,51.66
2023-04-12T21:32:11.297Z,51.85
2023-04-12T21:34:39.273Z,51.55
2023-04-12T21:37:07.761Z,52.24
2023-04-12T21:39:35.793Z,51.72
2023-04-12T21:42:03.707Z,52.21
2023-04-12T21:44:32.260Z,52.85
2023-04-12T21:47:00.230Z,52.92
2023-04-12T21:49:31.224Z,52.16
2023-04-12T21:51:59.452Z,52.71
2023-04-12T21:54:28.938Z,52.62
2023-04-12T21:56:57.442Z,52.35
2023-04-12T21:59:26.631Z,52.47
2023-04-12T22:01:54.707Z,54.33
2023-04-12T22:04:22.687Z,55.54
2023-04-12T22:06:52.632Z,56.07
2023-04-12T22:09:20.603Z,56.04
2023-04-12T22:11:49.140Z,57.20
2023-04-12T22:14:17.088Z,58.32
2023-04-12T22:16:45.294Z,59.59
2023-04-12T22:19:13.546Z,59.53
2023-04-12T22:21:41.569Z,60.79
2023-04-12T22:24:10.943Z,61.39
2023-04-12T22:26:38.952Z,61.45
2023-04-12T22:29:07.198Z,63.18
2023-04-12T22:31:35.604Z,64.79
2023-04-12T22:34:04.622Z,65.70
2023-04-12T22:36:37.170Z,66.43
2023-04-12T22:39:05.353Z,67.39
2023-04-12T22:41:34.676Z,68.05
2023-04-12T22:44:03.040Z,68.65
2023-04-12T22:46:32.466Z,69.18
2023-04-12T22:49:01.629Z,69.59
2023-04-12T22:51:29.569Z,70.22
2023-04-12T22:53:58.195Z,70.40
2023-04-12T22:56:27.095Z,71.52
2023-04-12T22:58:57.322Z,72.60
2023-04-12T23:01:25.356Z,73.29
2023-04-12T23:03:54.200Z,74.04
2023-04-12T23:06:22.120Z,74.61
2023-04-12T23:08:50.022Z,74.31
2023-04-12T23:11:18.060Z,74.84
2023-04-12T23:13:46.075Z,75.05
2023-04-12T23:16:16.250Z,74.74
2023-04-12T23:18:45.128Z,75.43
2023-04-12T23:21:13.318Z,76.18
2023-04-12T23:23:41.582Z,76.58
2023-04-12T23:26:10.823Z,75.93
2023-04-12T23:28:40.372Z,75.36
2023-04-12T23:31:08.885Z,76.08
2023-04-12T23:33:43.004Z,75.30
2023-04-12T23:36:11.814Z,76.15
2023-04-12T23:38:40.755Z,76.16
2023-04-12T23:41:11.538Z,76.69
2023-04-12T23:43:39.545Z,76.59
2023-04-12T23:46:08.350Z,76.25
2023-04-12T23:48:36.787Z,76.24
2023-04-12T23:51:06.921Z,75.92
2023-04-12T23:53:34.925Z,76.34
2023-04-12T23:56:02.954Z,75.96
2023-04-12T23:58:31.065Z,76.63
